Startpagina
METAR-TAF:

METAR-TAF

Vliegvelden :

Luchthaven Satu Mare

Satu Mare, Roemenië

breedte: 47-48N, lengte: 022-53E, hoogte: 123 m

Actueel weer

Dit bericht is 39 minuten geleden gemaakt, om 17:30 UTC
Wind 5 kt uit het oostzuidoosten
Temperatuur 3°C
Vochtigheid 87%
Druk 1027 hPa
Zicht: 9000 m
lichte sneeuw

METAR: LRSM 171730Z AUTO 11005KT 9000 -SN NCD 03/01 Q1027

Tijdstip: 20:09 (18:09 UTC)

Verwachting

Dit bericht is 16 uur en het 9 minuten geleden gemaakt, om 02:00 UTC
Verwachting geldig van 17 om 03 UTC tot 17 om 12 UTC
Wind 4 kt uit het oosten
Zicht: 5000 m
nevel
Kans 30% :
Tijdelijke
van 17 om 03 UTC tot 17 om 06 UTC
Zicht: 3000 m
nevel
Wijzigt naar
van 17 om 06 UTC tot 17 om 08 UTC
Zicht 10 km of meer

TAF: LRSM 170200Z 1703/1712 09004KT 5000 BR NSC PROB30 TEMPO 1703/1706 3000 BR BECMG 1706/1708 9999 NSW

Waarnemingen en weersverwachtingen van meer dan 4000 vliegvelden (METAR en TAF).

De beschikbare stations zijn de gele en rode punten op de kaart.

Ga met uw muis naar het station om de naam te zien.

Klik dan om waarnemingen en weersverwachtingen te zien.

kaart wijzigen: klik op de groene knoppen met een zwart kruis om in te zoomen, op de groene knop met een streepje om uit te zoomen of op de groene pijlen voor aangrenzende kaarten.


METAR-TAF: